This is the latest recevied weather packets stored in our database for station/object KC5DP. If no packets are shown the sender has not sent any weather packets the latest 10 day(s).
| Time | Temp. | Humidity | Pressure | Rain* | Wind** | Luminosity | Snow |
|---|---|---|---|---|---|---|---|
| 1778105240 | 27.78° C | 83% | 1008.7 hPa | 0 mm | - | 77 W/m² | - |
| 1778104934 | 27.78° C | 82% | 1009 hPa | 0 mm | - | 28 W/m² | - |
| 1778104631 | 27.78° C | 83% | 1008.9 hPa | 0 mm | - | 39 W/m² | - |
| 1778104326 | 28.33° C | 82% | 1009 hPa | 0 mm | - | 37 W/m² | - |
| 1778104023 | 27.78° C | 81% | 1009.1 hPa | 0 mm | - | 86 W/m² | - |
| 1778103721 | 28.33° C | 82% | 1009.4 hPa | 0 mm | - | 40 W/m² | - |
| 1778103419 | 28.33° C | 82% | 1009.3 hPa | 0 mm | - | 84 W/m² | - |
| 1778103116 | 28.33° C | 81% | 1009.4 hPa | 0 mm | - | 113 W/m² | - |
| 1778102813 | 28.33° C | 82% | 1009.6 hPa | 0 mm | - | 45 W/m² | - |
| 1778102508 | 28.33° C | 80% | 1009.5 hPa | 0 mm | - | 87 W/m² | - |
| 1778102204 | 28.33° C | 83% | 1009.7 hPa | 0 mm | - | 155 W/m² | - |
| 1778101901 | 28.33° C | 82% | 1009.8 hPa | 0 mm | - | 135 W/m² | - |
| 1778101598 | 28.33° C | 82% | 1010 hPa | 0 mm | - | 59 W/m² | - |
| 1778101294 | 28.33° C | 82% | 1010 hPa | 0 mm | - | 59 W/m² | - |
| 1778100991 | 28.33° C | 82% | 1009.9 hPa | 0 mm | - | 93 W/m² | - |
| 1778100686 | 28.33° C | 82% | 1009.9 hPa | 0 mm | - | 73 W/m² | - |
| 1778100384 | 28.33° C | 82% | 1009.8 hPa | 0 mm | - | 90 W/m² | - |
| 1778100081 | 28.89° C | 80% | 1010 hPa | 0 mm | - | 89 W/m² | - |
| 1778099779 | 28.89° C | 79% | 1010.1 hPa | 0 mm | - | 148 W/m² | - |
| 1778099475 | 28.89° C | 80% | 1010 hPa | 0 mm | - | 332 W/m² | - |
| 1778099174 | 28.89° C | 80% | 1010 hPa | 0 mm | - | 405 W/m² | - |
| 1778098869 | 28.89° C | 80% | 1010.1 hPa | 0 mm | - | 241 W/m² | - |
| 1778098567 | 28.33° C | 82% | 1010.4 hPa | 0 mm | - | 144 W/m² | - |
| 1778098263 | 28.33° C | 82% | 1010.4 hPa | 0 mm | - | 144 W/m² | - |
| 1778097960 | 28.89° C | 80% | 1010.5 hPa | 0 mm | - | 201 W/m² | - |
* Rain latest hour (hover to see other rain measurements)
** Current wind speed in m/s (hover to see current wind gust speed)